sensor_id;sensor_type;location;lat;lon;timestamp;P1;durP1;ratioP1;P2;durP2;ratioP2
17145;SDS011;8688;54.444;18.444;2024-01-06T00:01:44;84.53;;;26.40;;
17145;SDS011;8688;54.444;18.444;2024-01-06T00:04:11;49.93;;;18.63;;
17145;SDS011;8688;54.444;18.444;2024-01-06T00:06:40;36.00;;;11.17;;
17145;SDS011;8688;54.444;18.444;2024-01-06T00:09:08;28.00;;;10.53;;
17145;SDS011;8688;54.444;18.444;2024-01-06T00:11:35;9.20;;;3.63;;
17145;SDS011;8688;54.444;18.444;2024-01-06T00:14:03;8.73;;;4.10;;
17145;SDS011;8688;54.444;18.444;2024-01-06T00:16:30;7.10;;;3.43;;
17145;SDS011;8688;54.444;18.444;2024-01-06T00:18:57;6.63;;;2.27;;
17145;SDS011;8688;54.444;18.444;2024-01-06T00:21:26;6.60;;;2.53;;
17145;SDS011;8688;54.444;18.444;2024-01-06T00:23:55;5.30;;;2.17;;
17145;SDS011;8688;54.444;18.444;2024-01-06T00:26:22;7.77;;;2.93;;
17145;SDS011;8688;54.444;18.444;2024-01-06T00:28:50;7.47;;;3.13;;
17145;SDS011;8688;54.444;18.444;2024-01-06T00:31:17;9.10;;;3.70;;
17145;SDS011;8688;54.444;18.444;2024-01-06T00:33:45;9.53;;;4.13;;
17145;SDS011;8688;54.444;18.444;2024-01-06T00:36:12;9.90;;;4.03;;
17145;SDS011;8688;54.444;18.444;2024-01-06T00:38:40;9.87;;;4.10;;
17145;SDS011;8688;54.444;18.444;2024-01-06T00:41:09;11.00;;;3.77;;
17145;SDS011;8688;54.444;18.444;2024-01-06T00:43:36;9.93;;;4.10;;
17145;SDS011;8688;54.444;18.444;2024-01-06T00:46:04;9.50;;;3.90;;
17145;SDS011;8688;54.444;18.444;2024-01-06T00:48:31;11.37;;;4.47;;
17145;SDS011;8688;54.444;18.444;2024-01-06T00:50:59;10.93;;;4.23;;
17145;SDS011;8688;54.444;18.444;2024-01-06T00:53:26;10.63;;;4.33;;
17145;SDS011;8688;54.444;18.444;2024-01-06T00:55:53;11.57;;;4.60;;
17145;SDS011;8688;54.444;18.444;2024-01-06T00:58:22;13.17;;;4.30;;
17145;SDS011;8688;54.444;18.444;2024-01-06T01:00:50;9.57;;;4.33;;
17145;SDS011;8688;54.444;18.444;2024-01-06T01:03:17;8.80;;;3.63;;
17145;SDS011;8688;54.444;18.444;2024-01-06T01:05:45;10.30;;;3.37;;
17145;SDS011;8688;54.444;18.444;2024-01-06T01:08:12;7.97;;;3.23;;
17145;SDS011;8688;54.444;18.444;2024-01-06T01:10:40;11.40;;;3.80;;
17145;SDS011;8688;54.444;18.444;2024-01-06T01:13:07;9.23;;;3.43;;
17145;SDS011;8688;54.444;18.444;2024-01-06T01:15:36;11.83;;;3.60;;
17145;SDS011;8688;54.444;18.444;2024-01-06T01:18:04;8.03;;;3.03;;
17145;SDS011;8688;54.444;18.444;2024-01-06T01:20:31;10.63;;;2.93;;
17145;SDS011;8688;54.444;18.444;2024-01-06T01:22:59;11.43;;;3.87;;
17145;SDS011;8688;54.444;18.444;2024-01-06T01:25:26;8.17;;;3.40;;
17145;SDS011;8688;54.444;18.444;2024-01-06T01:27:53;9.93;;;3.37;;
17145;SDS011;8688;54.444;18.444;2024-01-06T01:30:21;9.90;;;3.60;;
17145;SDS011;8688;54.444;18.444;2024-01-06T01:32:50;8.73;;;3.67;;
17145;SDS011;8688;54.444;18.444;2024-01-06T01:35:17;8.07;;;3.30;;
17145;SDS011;8688;54.444;18.444;2024-01-06T01:37:45;10.20;;;3.50;;
17145;SDS011;8688;54.444;18.444;2024-01-06T01:40:12;12.10;;;3.47;;
17145;SDS011;8688;54.444;18.444;2024-01-06T01:42:40;9.17;;;3.20;;
17145;SDS011;8688;54.444;18.444;2024-01-06T01:45:11;9.80;;;3.37;;
17145;SDS011;8688;54.444;18.444;2024-01-06T01:47:39;8.93;;;3.43;;
17145;SDS011;8688;54.444;18.444;2024-01-06T01:50:08;8.43;;;3.33;;
17145;SDS011;8688;54.444;18.444;2024-01-06T01:52:38;6.87;;;3.20;;
17145;SDS011;8688;54.444;18.444;2024-01-06T01:55:07;6.90;;;3.50;;
17145;SDS011;8688;54.444;18.444;2024-01-06T01:57:35;8.90;;;3.80;;
17145;SDS011;8688;54.444;18.444;2024-01-06T02:00:03;10.13;;;4.17;;
17145;SDS011;8688;54.444;18.444;2024-01-06T02:02:31;8.23;;;3.53;;
17145;SDS011;8688;54.444;18.444;2024-01-06T02:04:59;9.60;;;3.60;;
17145;SDS011;8688;54.444;18.444;2024-01-06T02:07:28;8.97;;;3.83;;
17145;SDS011;8688;54.444;18.444;2024-01-06T02:09:55;7.13;;;3.13;;
17145;SDS011;8688;54.444;18.444;2024-01-06T02:12:23;9.20;;;3.97;;
17145;SDS011;8688;54.444;18.444;2024-01-06T02:14:50;9.23;;;3.67;;
17145;SDS011;8688;54.444;18.444;2024-01-06T02:17:17;12.07;;;4.10;;
17145;SDS011;8688;54.444;18.444;2024-01-06T02:19:45;7.83;;;3.50;;
17145;SDS011;8688;54.444;18.444;2024-01-06T02:22:14;9.27;;;3.60;;
17145;SDS011;8688;54.444;18.444;2024-01-06T02:24:42;8.43;;;3.73;;
17145;SDS011;8688;54.444;18.444;2024-01-06T02:27:09;9.67;;;4.53;;
17145;SDS011;8688;54.444;18.444;2024-01-06T02:29:37;8.10;;;3.30;;
17145;SDS011;8688;54.444;18.444;2024-01-06T02:32:04;12.27;;;4.40;;
17145;SDS011;8688;54.444;18.444;2024-01-06T02:34:32;10.43;;;4.93;;
17145;SDS011;8688;54.444;18.444;2024-01-06T02:37:00;12.17;;;4.70;;
17145;SDS011;8688;54.444;18.444;2024-01-06T02:39:28;12.03;;;4.57;;
17145;SDS011;8688;54.444;18.444;2024-01-06T02:41:56;12.80;;;4.93;;
17145;SDS011;8688;54.444;18.444;2024-01-06T02:44:23;13.33;;;4.73;;
17145;SDS011;8688;54.444;18.444;2024-01-06T02:46:51;14.97;;;5.53;;
17145;SDS011;8688;54.444;18.444;2024-01-06T02:49:19;12.43;;;4.73;;
17145;SDS011;8688;54.444;18.444;2024-01-06T02:51:47;11.50;;;4.70;;
17145;SDS011;8688;54.444;18.444;2024-01-06T02:54:14;8.77;;;3.60;;
17145;SDS011;8688;54.444;18.444;2024-01-06T02:56:43;6.60;;;2.80;;
17145;SDS011;8688;54.444;18.444;2024-01-06T02:59:11;11.93;;;4.00;;
17145;SDS011;8688;54.444;18.444;2024-01-06T03:01:38;10.07;;;3.27;;
17145;SDS011;8688;54.444;18.444;2024-01-06T03:04:05;6.93;;;3.07;;
17145;SDS011;8688;54.444;18.444;2024-01-06T03:06:32;7.97;;;3.27;;
17145;SDS011;8688;54.444;18.444;2024-01-06T03:09:00;5.67;;;3.00;;
17145;SDS011;8688;54.444;18.444;2024-01-06T03:11:27;7.70;;;2.60;;
17145;SDS011;8688;54.444;18.444;2024-01-06T03:13:56;3.87;;;1.60;;
17145;SDS011;8688;54.444;18.444;2024-01-06T03:16:23;2.23;;;1.00;;
17145;SDS011;8688;54.444;18.444;2024-01-06T03:18:51;2.00;;;1.20;;
17145;SDS011;8688;54.444;18.444;2024-01-06T03:21:19;2.17;;;0.73;;
17145;SDS011;8688;54.444;18.444;2024-01-06T03:23:47;1.17;;;0.80;;
17145;SDS011;8688;54.444;18.444;2024-01-06T03:26:16;1.87;;;0.70;;
17145;SDS011;8688;54.444;18.444;2024-01-06T03:28:44;1.07;;;0.73;;
17145;SDS011;8688;54.444;18.444;2024-01-06T03:31:13;8.33;;;2.47;;
17145;SDS011;8688;54.444;18.444;2024-01-06T03:33:40;9.13;;;3.10;;
17145;SDS011;8688;54.444;18.444;2024-01-06T03:36:09;8.53;;;3.67;;
17145;SDS011;8688;54.444;18.444;2024-01-06T03:38:39;9.00;;;4.30;;
17145;SDS011;8688;54.444;18.444;2024-01-06T03:41:06;10.70;;;3.93;;
17145;SDS011;8688;54.444;18.444;2024-01-06T03:43:34;11.77;;;3.70;;
17145;SDS011;8688;54.444;18.444;2024-01-06T03:46:01;8.33;;;3.50;;
17145;SDS011;8688;54.444;18.444;2024-01-06T03:48:30;7.83;;;3.90;;
17145;SDS011;8688;54.444;18.444;2024-01-06T03:50:58;11.17;;;3.50;;
17145;SDS011;8688;54.444;18.444;2024-01-06T03:53:26;9.43;;;3.47;;
17145;SDS011;8688;54.444;18.444;2024-01-06T03:55:53;9.77;;;4.23;;
17145;SDS011;8688;54.444;18.444;2024-01-06T03:58:21;8.33;;;3.37;;
17145;SDS011;8688;54.444;18.444;2024-01-06T04:00:48;8.40;;;3.30;;
17145;SDS011;8688;54.444;18.444;2024-01-06T04:03:15;7.57;;;3.60;;
17145;SDS011;8688;54.444;18.444;2024-01-06T04:05:44;8.43;;;3.60;;
17145;SDS011;8688;54.444;18.444;2024-01-06T04:08:11;9.67;;;3.10;;
17145;SDS011;8688;54.444;18.444;2024-01-06T04:10:39;7.87;;;3.30;;
17145;SDS011;8688;54.444;18.444;2024-01-06T04:13:07;7.10;;;2.73;;
17145;SDS011;8688;54.444;18.444;2024-01-06T04:15:34;6.30;;;2.80;;
17145;SDS011;8688;54.444;18.444;2024-01-06T04:18:02;4.37;;;2.33;;
17145;SDS011;8688;54.444;18.444;2024-01-06T04:20:30;4.33;;;2.10;;
17145;SDS011;8688;54.444;18.444;2024-01-06T04:23:00;5.00;;;2.03;;
17145;SDS011;8688;54.444;18.444;2024-01-06T04:25:27;4.83;;;1.77;;
17145;SDS011;8688;54.444;18.444;2024-01-06T04:27:54;2.87;;;1.43;;
17145;SDS011;8688;54.444;18.444;2024-01-06T04:30:22;1.57;;;0.83;;
17145;SDS011;8688;54.444;18.444;2024-01-06T04:32:51;1.80;;;0.87;;
17145;SDS011;8688;54.444;18.444;2024-01-06T04:35:19;1.47;;;0.90;;
17145;SDS011;8688;54.444;18.444;2024-01-06T04:37:48;1.30;;;0.70;;
17145;SDS011;8688;54.444;18.444;2024-01-06T04:40:17;1.83;;;1.03;;
17145;SDS011;8688;54.444;18.444;2024-01-06T04:42:44;1.87;;;0.87;;
17145;SDS011;8688;54.444;18.444;2024-01-06T04:45:12;2.27;;;0.90;;
17145;SDS011;8688;54.444;18.444;2024-01-06T04:47:39;1.87;;;0.53;;
17145;SDS011;8688;54.444;18.444;2024-01-06T04:50:07;1.47;;;0.80;;
17145;SDS011;8688;54.444;18.444;2024-01-06T04:52:35;3.57;;;1.20;;
17145;SDS011;8688;54.444;18.444;2024-01-06T04:55:03;1.97;;;1.00;;
17145;SDS011;8688;54.444;18.444;2024-01-06T04:57:32;2.13;;;1.07;;
17145;SDS011;8688;54.444;18.444;2024-01-06T05:00:00;2.10;;;0.80;;
17145;SDS011;8688;54.444;18.444;2024-01-06T05:02:27;2.43;;;0.70;;
17145;SDS011;8688;54.444;18.444;2024-01-06T05:04:55;1.40;;;0.90;;
17145;SDS011;8688;54.444;18.444;2024-01-06T05:07:22;2.07;;;1.40;;
17145;SDS011;8688;54.444;18.444;2024-01-06T05:09:50;2.63;;;1.03;;
17145;SDS011;8688;54.444;18.444;2024-01-06T05:12:17;3.33;;;0.87;;
17145;SDS011;8688;54.444;18.444;2024-01-06T05:14:46;2.90;;;0.93;;
17145;SDS011;8688;54.444;18.444;2024-01-06T05:17:14;0.90;;;0.57;;
17145;SDS011;8688;54.444;18.444;2024-01-06T05:19:41;2.30;;;0.80;;
17145;SDS011;8688;54.444;18.444;2024-01-06T05:22:09;3.23;;;1.03;;
17145;SDS011;8688;54.444;18.444;2024-01-06T05:24:36;3.13;;;0.63;;
17145;SDS011;8688;54.444;18.444;2024-01-06T05:27:04;1.63;;;0.80;;
17145;SDS011;8688;54.444;18.444;2024-01-06T05:29:31;1.37;;;0.83;;
17145;SDS011;8688;54.444;18.444;2024-01-06T05:32:00;1.63;;;0.80;;
17145;SDS011;8688;54.444;18.444;2024-01-06T05:34:28;3.53;;;1.10;;
17145;SDS011;8688;54.444;18.444;2024-01-06T05:36:56;3.93;;;1.47;;
17145;SDS011;8688;54.444;18.444;2024-01-06T05:39:23;3.60;;;1.70;;
17145;SDS011;8688;54.444;18.444;2024-01-06T05:41:50;3.93;;;1.40;;
17145;SDS011;8688;54.444;18.444;2024-01-06T05:44:18;3.73;;;1.50;;
17145;SDS011;8688;54.444;18.444;2024-01-06T05:46:45;2.90;;;1.40;;
17145;SDS011;8688;54.444;18.444;2024-01-06T05:49:14;2.67;;;1.30;;
17145;SDS011;8688;54.444;18.444;2024-01-06T05:51:44;1.77;;;1.10;;
17145;SDS011;8688;54.444;18.444;2024-01-06T05:54:11;1.70;;;0.80;;
17145;SDS011;8688;54.444;18.444;2024-01-06T05:56:39;3.90;;;0.77;;
17145;SDS011;8688;54.444;18.444;2024-01-06T05:59:07;1.33;;;0.97;;
17145;SDS011;8688;54.444;18.444;2024-01-06T06:01:36;2.60;;;1.10;;
17145;SDS011;8688;54.444;18.444;2024-01-06T06:04:03;3.13;;;1.20;;
17145;SDS011;8688;54.444;18.444;2024-01-06T06:06:32;2.60;;;1.20;;
17145;SDS011;8688;54.444;18.444;2024-01-06T06:08:59;5.70;;;1.87;;
17145;SDS011;8688;54.444;18.444;2024-01-06T06:11:32;1.70;;;1.10;;
17145;SDS011;8688;54.444;18.444;2024-01-06T06:14:02;2.77;;;1.50;;
17145;SDS011;8688;54.444;18.444;2024-01-06T06:16:30;3.80;;;1.63;;
17145;SDS011;8688;54.444;18.444;2024-01-06T06:18:57;3.97;;;1.60;;
17145;SDS011;8688;54.444;18.444;2024-01-06T06:21:25;3.93;;;1.60;;
17145;SDS011;8688;54.444;18.444;2024-01-06T06:23:54;2.13;;;1.23;;
17145;SDS011;8688;54.444;18.444;2024-01-06T06:26:22;2.90;;;1.67;;
17145;SDS011;8688;54.444;18.444;2024-01-06T06:28:49;3.50;;;1.50;;
17145;SDS011;8688;54.444;18.444;2024-01-06T06:31:17;3.60;;;1.50;;
17145;SDS011;8688;54.444;18.444;2024-01-06T06:33:46;5.43;;;1.90;;
17145;SDS011;8688;54.444;18.444;2024-01-06T06:36:13;2.40;;;1.07;;
17145;SDS011;8688;54.444;18.444;2024-01-06T06:38:41;2.17;;;0.80;;
17145;SDS011;8688;54.444;18.444;2024-01-06T06:41:09;1.20;;;0.90;;
17145;SDS011;8688;54.444;18.444;2024-01-06T06:43:37;1.00;;;0.60;;
17145;SDS011;8688;54.444;18.444;2024-01-06T06:46:04;5.83;;;1.67;;
17145;SDS011;8688;54.444;18.444;2024-01-06T06:48:31;1.73;;;1.00;;
17145;SDS011;8688;54.444;18.444;2024-01-06T06:50:58;2.20;;;1.10;;
17145;SDS011;8688;54.444;18.444;2024-01-06T06:53:26;3.10;;;1.10;;
17145;SDS011;8688;54.444;18.444;2024-01-06T06:55:53;3.20;;;1.20;;
17145;SDS011;8688;54.444;18.444;2024-01-06T06:58:22;4.43;;;1.47;;
17145;SDS011;8688;54.444;18.444;2024-01-06T07:00:50;3.87;;;1.73;;
17145;SDS011;8688;54.444;18.444;2024-01-06T07:03:19;3.87;;;1.80;;
17145;SDS011;8688;54.444;18.444;2024-01-06T07:05:47;2.57;;;1.00;;
17145;SDS011;8688;54.444;18.444;2024-01-06T07:08:14;1.93;;;0.73;;
17145;SDS011;8688;54.444;18.444;2024-01-06T07:10:41;2.43;;;0.90;;
17145;SDS011;8688;54.444;18.444;2024-01-06T07:13:10;2.70;;;0.80;;
17145;SDS011;8688;54.444;18.444;2024-01-06T07:15:39;1.07;;;0.63;;
17145;SDS011;8688;54.444;18.444;2024-01-06T07:18:07;2.43;;;0.70;;
17145;SDS011;8688;54.444;18.444;2024-01-06T07:20:34;1.37;;;0.53;;
17145;SDS011;8688;54.444;18.444;2024-01-06T07:23:02;1.67;;;0.90;;
17145;SDS011;8688;54.444;18.444;2024-01-06T07:25:29;1.57;;;0.70;;
17145;SDS011;8688;54.444;18.444;2024-01-06T07:27:57;2.23;;;0.90;;
17145;SDS011;8688;54.444;18.444;2024-01-06T07:30:24;2.57;;;1.07;;
17145;SDS011;8688;54.444;18.444;2024-01-06T07:32:53;1.87;;;0.90;;
17145;SDS011;8688;54.444;18.444;2024-01-06T07:35:21;1.30;;;1.03;;
17145;SDS011;8688;54.444;18.444;2024-01-06T07:37:48;2.47;;;0.90;;
17145;SDS011;8688;54.444;18.444;2024-01-06T07:40:16;3.70;;;0.80;;
17145;SDS011;8688;54.444;18.444;2024-01-06T07:42:43;1.87;;;0.90;;
17145;SDS011;8688;54.444;18.444;2024-01-06T07:45:11;3.10;;;1.00;;
17145;SDS011;8688;54.444;18.444;2024-01-06T07:47:38;3.57;;;1.27;;
17145;SDS011;8688;54.444;18.444;2024-01-06T07:50:08;1.37;;;0.83;;
17145;SDS011;8688;54.444;18.444;2024-01-06T07:52:37;2.00;;;1.03;;
17145;SDS011;8688;54.444;18.444;2024-01-06T07:55:04;4.27;;;1.00;;
17145;SDS011;8688;54.444;18.444;2024-01-06T07:57:33;1.97;;;1.00;;
17145;SDS011;8688;54.444;18.444;2024-01-06T08:00:00;1.03;;;0.77;;
17145;SDS011;8688;54.444;18.444;2024-01-06T08:02:28;2.73;;;0.90;;
17145;SDS011;8688;54.444;18.444;2024-01-06T08:04:56;3.03;;;0.90;;
17145;SDS011;8688;54.444;18.444;2024-01-06T08:07:25;4.50;;;0.83;;
17145;SDS011;8688;54.444;18.444;2024-01-06T08:09:52;3.07;;;0.90;;
17145;SDS011;8688;54.444;18.444;2024-01-06T08:12:20;2.27;;;1.20;;
17145;SDS011;8688;54.444;18.444;2024-01-06T08:14:47;1.60;;;1.03;;
17145;SDS011;8688;54.444;18.444;2024-01-06T08:17:14;1.87;;;1.10;;
17145;SDS011;8688;54.444;18.444;2024-01-06T08:19:42;1.63;;;0.97;;
17145;SDS011;8688;54.444;18.444;2024-01-06T08:22:12;3.13;;;1.43;;
17145;SDS011;8688;54.444;18.444;2024-01-06T08:24:41;3.57;;;1.10;;
17145;SDS011;8688;54.444;18.444;2024-01-06T08:27:09;2.60;;;1.30;;
17145;SDS011;8688;54.444;18.444;2024-01-06T08:29:36;3.53;;;1.20;;
17145;SDS011;8688;54.444;18.444;2024-01-06T08:32:04;5.47;;;2.03;;
17145;SDS011;8688;54.444;18.444;2024-01-06T08:34:35;6.47;;;1.90;;
17145;SDS011;8688;54.444;18.444;2024-01-06T08:37:03;7.97;;;2.50;;
17145;SDS011;8688;54.444;18.444;2024-01-06T08:39:31;5.47;;;2.20;;
17145;SDS011;8688;54.444;18.444;2024-01-06T08:42:00;4.13;;;1.30;;
17145;SDS011;8688;54.444;18.444;2024-01-06T08:44:27;2.53;;;1.20;;
17145;SDS011;8688;54.444;18.444;2024-01-06T08:46:55;2.03;;;1.20;;
17145;SDS011;8688;54.444;18.444;2024-01-06T08:49:22;3.13;;;1.20;;
17145;SDS011;8688;54.444;18.444;2024-01-06T08:51:50;2.40;;;1.30;;
17145;SDS011;8688;54.444;18.444;2024-01-06T08:54:18;2.00;;;0.90;;
17145;SDS011;8688;54.444;18.444;2024-01-06T08:56:45;2.77;;;1.10;;
17145;SDS011;8688;54.444;18.444;2024-01-06T08:59:14;4.43;;;1.77;;
17145;SDS011;8688;54.444;18.444;2024-01-06T09:01:42;1.87;;;0.80;;
17145;SDS011;8688;54.444;18.444;2024-01-06T09:04:09;2.67;;;0.80;;
17145;SDS011;8688;54.444;18.444;2024-01-06T09:06:40;3.73;;;1.00;;
17145;SDS011;8688;54.444;18.444;2024-01-06T09:09:08;3.40;;;1.10;;
17145;SDS011;8688;54.444;18.444;2024-01-06T09:11:36;2.57;;;1.03;;
17145;SDS011;8688;54.444;18.444;2024-01-06T09:14:04;1.87;;;0.77;;
17145;SDS011;8688;54.444;18.444;2024-01-06T09:16:33;2.57;;;1.10;;
17145;SDS011;8688;54.444;18.444;2024-01-06T09:19:00;1.00;;;0.70;;
17145;SDS011;8688;54.444;18.444;2024-01-06T09:21:28;1.20;;;0.90;;
17145;SDS011;8688;54.444;18.444;2024-01-06T09:23:56;1.30;;;0.70;;
17145;SDS011;8688;54.444;18.444;2024-01-06T09:26:24;2.00;;;0.93;;
17145;SDS011;8688;54.444;18.444;2024-01-06T09:28:51;3.93;;;1.30;;
17145;SDS011;8688;54.444;18.444;2024-01-06T09:31:19;2.53;;;1.33;;
17145;SDS011;8688;54.444;18.444;2024-01-06T09:33:48;3.10;;;1.57;;
17145;SDS011;8688;54.444;18.444;2024-01-06T09:36:16;3.70;;;1.57;;
17145;SDS011;8688;54.444;18.444;2024-01-06T09:38:43;2.67;;;1.50;;
17145;SDS011;8688;54.444;18.444;2024-01-06T09:41:11;3.73;;;1.93;;
17145;SDS011;8688;54.444;18.444;2024-01-06T09:43:44;4.77;;;1.60;;
17145;SDS011;8688;54.444;18.444;2024-01-06T09:46:15;5.77;;;1.80;;
17145;SDS011;8688;54.444;18.444;2024-01-06T09:48:51;3.87;;;1.70;;
17145;SDS011;8688;54.444;18.444;2024-01-06T09:51:20;5.03;;;2.27;;
17145;SDS011;8688;54.444;18.444;2024-01-06T09:53:49;3.93;;;1.20;;
17145;SDS011;8688;54.444;18.444;2024-01-06T09:56:25;4.63;;;1.20;;
17145;SDS011;8688;54.444;18.444;2024-01-06T09:58:55;2.80;;;1.40;;
17145;SDS011;8688;54.444;18.444;2024-01-06T10:01:23;2.60;;;1.30;;
17145;SDS011;8688;54.444;18.444;2024-01-06T10:03:53;3.33;;;1.30;;
17145;SDS011;8688;54.444;18.444;2024-01-06T10:06:20;3.83;;;1.27;;
17145;SDS011;8688;54.444;18.444;2024-01-06T10:08:57;3.90;;;1.30;;
17145;SDS011;8688;54.444;18.444;2024-01-06T10:11:30;5.37;;;1.40;;
17145;SDS011;8688;54.444;18.444;2024-01-06T10:14:02;4.40;;;1.50;;
17145;SDS011;8688;54.444;18.444;2024-01-06T10:16:33;2.50;;;1.20;;
17145;SDS011;8688;54.444;18.444;2024-01-06T10:19:12;3.00;;;1.27;;
17145;SDS011;8688;54.444;18.444;2024-01-06T10:22:02;2.77;;;1.20;;
17145;SDS011;8688;54.444;18.444;2024-01-06T10:29:05;5.17;;;1.70;;
17145;SDS011;8688;54.444;18.444;2024-01-06T10:31:31;5.17;;;2.00;;
17145;SDS011;8688;54.444;18.444;2024-01-06T10:37:43;5.87;;;2.30;;
17145;SDS011;8688;54.444;18.444;2024-01-06T10:40:47;3.53;;;1.90;;
17145;SDS011;8688;54.444;18.444;2024-01-06T10:46:55;3.43;;;1.30;;
17145;SDS011;8688;54.444;18.444;2024-01-06T10:49:33;3.00;;;1.50;;
17145;SDS011;8688;54.444;18.444;2024-01-06T10:52:08;3.60;;;1.30;;
17145;SDS011;8688;54.444;18.444;2024-01-06T10:54:46;4.33;;;1.37;;
17145;SDS011;8688;54.444;18.444;2024-01-06T10:57:29;4.80;;;1.57;;
17145;SDS011;8688;54.444;18.444;2024-01-06T11:00:02;2.10;;;1.17;;
17145;SDS011;8688;54.444;18.444;2024-01-06T11:02:32;16.43;;;4.70;;
17145;SDS011;8688;54.444;18.444;2024-01-06T11:05:01;5.20;;;2.03;;
17145;SDS011;8688;54.444;18.444;2024-01-06T11:07:33;2.77;;;1.13;;
17145;SDS011;8688;54.444;18.444;2024-01-06T11:10:06;3.63;;;1.00;;
17145;SDS011;8688;54.444;18.444;2024-01-06T11:12:41;1.57;;;0.57;;
17145;SDS011;8688;54.444;18.444;2024-01-06T11:15:39;2.50;;;0.90;;
17145;SDS011;8688;54.444;18.444;2024-01-06T11:18:08;1.93;;;1.10;;
17145;SDS011;8688;54.444;18.444;2024-01-06T11:26:52;5.57;;;1.77;;
17145;SDS011;8688;54.444;18.444;2024-01-06T11:29:24;4.43;;;1.80;;
17145;SDS011;8688;54.444;18.444;2024-01-06T11:34:49;4.27;;;1.17;;
17145;SDS011;8688;54.444;18.444;2024-01-06T11:37:19;4.43;;;1.80;;
17145;SDS011;8688;54.444;18.444;2024-01-06T11:39:51;10.17;;;2.17;;
17145;SDS011;8688;54.444;18.444;2024-01-06T11:42:24;3.70;;;1.23;;
17145;SDS011;8688;54.444;18.444;2024-01-06T11:45:02;4.10;;;1.60;;
17145;SDS011;8688;54.444;18.444;2024-01-06T11:47:32;3.73;;;1.40;;
17145;SDS011;8688;54.444;18.444;2024-01-06T11:50:00;3.80;;;1.60;;
17145;SDS011;8688;54.444;18.444;2024-01-06T11:52:30;2.40;;;1.00;;
17145;SDS011;8688;54.444;18.444;2024-01-06T11:54:59;1.57;;;0.83;;
17145;SDS011;8688;54.444;18.444;2024-01-06T11:57:29;2.97;;;0.90;;
17145;SDS011;8688;54.444;18.444;2024-01-06T11:59:57;4.10;;;1.40;;
17145;SDS011;8688;54.444;18.444;2024-01-06T12:02:25;4.27;;;1.20;;
17145;SDS011;8688;54.444;18.444;2024-01-06T12:04:52;1.13;;;0.80;;
17145;SDS011;8688;54.444;18.444;2024-01-06T12:07:20;2.00;;;0.90;;
17145;SDS011;8688;54.444;18.444;2024-01-06T12:09:48;4.47;;;1.40;;
17145;SDS011;8688;54.444;18.444;2024-01-06T12:12:18;2.57;;;1.17;;
17145;SDS011;8688;54.444;18.444;2024-01-06T12:14:47;3.80;;;1.70;;
17145;SDS011;8688;54.444;18.444;2024-01-06T12:17:15;7.10;;;2.47;;
17145;SDS011;8688;54.444;18.444;2024-01-06T12:19:43;7.27;;;2.83;;
17145;SDS011;8688;54.444;18.444;2024-01-06T12:22:14;10.10;;;3.53;;
17145;SDS011;8688;54.444;18.444;2024-01-06T12:24:42;3.07;;;1.83;;
17145;SDS011;8688;54.444;18.444;2024-01-06T12:27:12;4.73;;;2.07;;
17145;SDS011;8688;54.444;18.444;2024-01-06T12:29:40;5.70;;;2.43;;
17145;SDS011;8688;54.444;18.444;2024-01-06T12:32:10;5.20;;;1.67;;
17145;SDS011;8688;54.444;18.444;2024-01-06T12:34:38;7.53;;;2.70;;
17145;SDS011;8688;54.444;18.444;2024-01-06T12:37:06;5.37;;;2.00;;
17145;SDS011;8688;54.444;18.444;2024-01-06T12:39:34;8.73;;;2.00;;
17145;SDS011;8688;54.444;18.444;2024-01-06T12:42:02;5.40;;;1.80;;
17145;SDS011;8688;54.444;18.444;2024-01-06T12:44:30;4.73;;;1.57;;
17145;SDS011;8688;54.444;18.444;2024-01-06T12:47:02;3.77;;;1.80;;
17145;SDS011;8688;54.444;18.444;2024-01-06T12:49:33;5.60;;;1.87;;
17145;SDS011;8688;54.444;18.444;2024-01-06T12:52:04;3.33;;;1.20;;
17145;SDS011;8688;54.444;18.444;2024-01-06T12:54:32;4.70;;;1.80;;
17145;SDS011;8688;54.444;18.444;2024-01-06T12:57:02;6.37;;;1.30;;
17145;SDS011;8688;54.444;18.444;2024-01-06T12:59:30;4.97;;;1.43;;
17145;SDS011;8688;54.444;18.444;2024-01-06T13:01:58;6.20;;;1.60;;
17145;SDS011;8688;54.444;18.444;2024-01-06T13:04:25;2.73;;;1.00;;
17145;SDS011;8688;54.444;18.444;2024-01-06T13:06:55;2.23;;;0.90;;
17145;SDS011;8688;54.444;18.444;2024-01-06T13:09:23;1.57;;;0.90;;
17145;SDS011;8688;54.444;18.444;2024-01-06T13:11:51;2.83;;;1.07;;
17145;SDS011;8688;54.444;18.444;2024-01-06T13:14:21;2.13;;;0.80;;
17145;SDS011;8688;54.444;18.444;2024-01-06T13:16:48;3.13;;;1.30;;
17145;SDS011;8688;54.444;18.444;2024-01-06T13:19:16;3.20;;;1.13;;
17145;SDS011;8688;54.444;18.444;2024-01-06T13:21:44;3.53;;;1.20;;
17145;SDS011;8688;54.444;18.444;2024-01-06T13:24:12;2.57;;;1.10;;
17145;SDS011;8688;54.444;18.444;2024-01-06T13:26:40;3.87;;;1.27;;
17145;SDS011;8688;54.444;18.444;2024-01-06T13:29:07;3.80;;;2.10;;
17145;SDS011;8688;54.444;18.444;2024-01-06T13:31:35;6.77;;;2.00;;
17145;SDS011;8688;54.444;18.444;2024-01-06T13:34:03;10.13;;;3.43;;
17145;SDS011;8688;54.444;18.444;2024-01-06T13:36:31;6.73;;;2.77;;
17145;SDS011;8688;54.444;18.444;2024-01-06T13:38:58;4.83;;;1.77;;
17145;SDS011;8688;54.444;18.444;2024-01-06T13:41:28;2.93;;;1.43;;
17145;SDS011;8688;54.444;18.444;2024-01-06T13:44:02;4.53;;;1.23;;
17145;SDS011;8688;54.444;18.444;2024-01-06T13:46:32;7.90;;;2.60;;
17145;SDS011;8688;54.444;18.444;2024-01-06T13:49:00;6.53;;;1.90;;
17145;SDS011;8688;54.444;18.444;2024-01-06T13:51:27;5.47;;;2.13;;
17145;SDS011;8688;54.444;18.444;2024-01-06T13:53:55;8.70;;;1.97;;
17145;SDS011;8688;54.444;18.444;2024-01-06T13:56:22;5.77;;;2.20;;
17145;SDS011;8688;54.444;18.444;2024-01-06T13:58:51;2.53;;;1.20;;
17145;SDS011;8688;54.444;18.444;2024-01-06T14:01:19;2.03;;;1.00;;
17145;SDS011;8688;54.444;18.444;2024-01-06T14:03:46;2.67;;;1.20;;
17145;SDS011;8688;54.444;18.444;2024-01-06T14:06:14;4.57;;;1.57;;
17145;SDS011;8688;54.444;18.444;2024-01-06T14:08:43;5.40;;;1.53;;
17145;SDS011;8688;54.444;18.444;2024-01-06T14:11:10;3.17;;;1.20;;
17145;SDS011;8688;54.444;18.444;2024-01-06T14:13:37;4.33;;;1.17;;
17145;SDS011;8688;54.444;18.444;2024-01-06T14:16:06;7.60;;;2.03;;
17145;SDS011;8688;54.444;18.444;2024-01-06T14:18:34;3.53;;;1.73;;
17145;SDS011;8688;54.444;18.444;2024-01-06T14:21:02;6.20;;;1.83;;
17145;SDS011;8688;54.444;18.444;2024-01-06T14:23:29;6.03;;;1.80;;
17145;SDS011;8688;54.444;18.444;2024-01-06T14:25:58;3.23;;;1.37;;
17145;SDS011;8688;54.444;18.444;2024-01-06T14:28:25;2.93;;;1.50;;
17145;SDS011;8688;54.444;18.444;2024-01-06T14:30:53;2.93;;;1.13;;
17145;SDS011;8688;54.444;18.444;2024-01-06T14:33:22;2.83;;;1.20;;
17145;SDS011;8688;54.444;18.444;2024-01-06T14:35:49;5.63;;;2.10;;
17145;SDS011;8688;54.444;18.444;2024-01-06T14:38:16;3.43;;;1.80;;
17145;SDS011;8688;54.444;18.444;2024-01-06T14:40:44;1.10;;;0.67;;
17145;SDS011;8688;54.444;18.444;2024-01-06T14:43:11;3.27;;;0.70;;
17145;SDS011;8688;54.444;18.444;2024-01-06T14:45:39;2.73;;;0.90;;
17145;SDS011;8688;54.444;18.444;2024-01-06T14:48:07;1.00;;;0.70;;
17145;SDS011;8688;54.444;18.444;2024-01-06T14:50:35;0.93;;;0.57;;
17145;SDS011;8688;54.444;18.444;2024-01-06T14:53:03;1.33;;;0.70;;
17145;SDS011;8688;54.444;18.444;2024-01-06T14:55:31;2.23;;;0.80;;
17145;SDS011;8688;54.444;18.444;2024-01-06T14:57:59;2.97;;;1.00;;
17145;SDS011;8688;54.444;18.444;2024-01-06T15:00:26;3.93;;;1.77;;
17145;SDS011;8688;54.444;18.444;2024-01-06T15:02:56;3.07;;;1.70;;
17145;SDS011;8688;54.444;18.444;2024-01-06T15:05:23;2.30;;;1.50;;
17145;SDS011;8688;54.444;18.444;2024-01-06T15:07:55;1.27;;;0.70;;
17145;SDS011;8688;54.444;18.444;2024-01-06T15:10:23;0.87;;;0.43;;
17145;SDS011;8688;54.444;18.444;2024-01-06T15:12:50;2.20;;;0.63;;
17145;SDS011;8688;54.444;18.444;2024-01-06T15:15:18;2.20;;;0.60;;